Time;durP1;ratioP1;P1;durP2;ratioP2;P2;SDS_P1;SDS_P2;PMS_P1;PMS_P2;Temp;Humidity;BMP_temperature;BMP_pressure;BME280_temperature;BME280_humidity;BME280_pressure;Samples;Min_cycle;Max_cycle;Signal;HPM_P1;HPM_P2
2023/01/13 05:08:14;;;;;;;;;;;;;;;9.56;69.59;97154.75;4220746;27;10955;-67
2023/01/13 05:10:17;;;;;;;;;;;;;;;9.81;69.03;97155.38;4208460;28;5677;-67
2023/01/13 05:17:01;;;;;;;;;;;;;;;10.37;68.12;97158.44;4213537;28;5971;-67
2023/01/13 05:19:04;;;;;;;;;;;;;;;10.45;68.01;97161.00;4216732;28;5832;-67
2023/01/13 05:25:20;;;;;;;;;;;;;;;10.51;67.47;97152.31;4221959;28;5675;-67
2023/01/13 05:25:50;;;;;;;;;;;;;;;10.63;67.75;97168.53;4206413;28;5696;-66
2023/01/13 05:27:55;;;;;;;;;;;;;;;10.68;67.52;97163.53;4206576;28;5678;-67
2023/01/13 05:29:58;;;;;;;;;;;;;;;10.72;67.27;97167.44;4215359;28;5688;-68
2023/01/13 05:32:01;;;;;;;;;;;;;;;10.77;67.52;97171.19;4214166;28;5705;-67
2023/01/13 05:34:04;;;;;;;;;;;;;;;10.81;67.33;97160.22;4214826;28;5685;-67
2023/01/13 05:36:07;;;;;;;;;;;;;;;10.82;67.00;97149.47;4211953;28;5869;-67
2023/01/13 05:38:11;;;;;;;;;;;;;;;10.82;67.08;97146.81;4215753;28;5817;-67
2023/01/13 05:45:01;;;;;;;;;;;;;;;10.85;67.26;97143.78;4207923;28;5690;-66
2023/01/13 05:47:04;;;;;;;;;;;;;;;10.85;66.92;97146.44;4209930;28;5685;-66
2023/01/13 05:49:10;;;;;;;;;;;;;;;10.87;66.94;97149.72;4202132;28;5146;-66
2023/01/13 05:51:13;;;;;;;;;;;;;;;10.87;67.24;97144.41;4222702;28;5893;-66
2023/01/13 05:53:17;;;;;;;;;;;;;;;10.88;66.82;97150.56;4220857;28;5683;-65
2023/01/13 05:55:21;;;;;;;;;;;;;;;10.90;66.83;97149.34;4218587;28;5683;-65
2023/01/13 05:57:24;;;;;;;;;;;;;;;10.91;66.49;97151.00;4220315;28;5683;-66
2023/01/13 05:59:27;;;;;;;;;;;;;;;10.90;66.63;97151.19;4215837;28;5795;-66
2023/01/13 06:01:30;;;;;;;;;;;;;;;10.85;66.84;97145.63;4220811;28;6291;-66
2023/01/13 06:03:34;;;;;;;;;;;;;;;10.86;66.53;97153.38;4211219;28;5692;-66
2023/01/13 06:05:37;;;;;;;;;;;;;;;10.88;66.68;97145.28;4210920;28;5701;-66
2023/01/13 06:07:40;;;;;;;;;;;;;;;10.89;66.82;97153.00;4209037;28;5820;-66
2023/01/13 06:09:43;;;;;;;;;;;;;;;10.89;66.63;97141.63;4196697;28;5805;-66
2023/01/13 06:11:47;;;;;;;;;;;;;;;10.90;66.55;97133.50;4196032;28;5698;-66
2023/01/13 06:13:50;;;;;;;;;;;;;;;10.91;66.23;97137.78;4194670;28;5708;-66
2023/01/13 06:15:56;;;;;;;;;;;;;;;10.86;66.34;97147.25;4199031;28;5775;-66
2023/01/13 06:18:01;;;;;;;;;;;;;;;10.87;66.42;97144.41;4196268;28;5868;-66
2023/01/13 06:20:07;;;;;;;;;;;;;;;10.84;66.39;97133.41;4193850;28;5791;-66
2023/01/13 06:22:13;;;;;;;;;;;;;;;10.81;66.47;97136.44;4199859;28;5756;-66
2023/01/13 06:24:16;;;;;;;;;;;;;;;10.78;66.55;97130.50;4194765;28;5787;-66
2023/01/13 06:26:21;;;;;;;;;;;;;;;10.80;66.48;97135.59;4198193;28;5843;-67
2023/01/13 06:28:25;;;;;;;;;;;;;;;10.83;66.46;97132.59;4199850;28;5685;-67
2023/01/13 06:30:30;;;;;;;;;;;;;;;10.82;66.32;97136.25;4195241;28;5705;-65
2023/01/13 06:32:38;;;;;;;;;;;;;;;10.84;66.38;97136.03;4197452;28;6498;-66
2023/01/13 06:34:44;;;;;;;;;;;;;;;10.83;66.39;97129.94;4199264;28;5677;-66
2023/01/13 06:36:52;;;;;;;;;;;;;;;10.81;66.21;97139.06;4202712;28;6124;-65
2023/01/13 06:38:59;;;;;;;;;;;;;;;10.78;66.11;97148.19;4202386;28;5804;-66
2023/01/13 06:41:02;;;;;;;;;;;;;;;10.75;66.35;97144.09;4192985;28;5863;-66
2023/01/13 06:43:16;;;;;;;;;;;;;;;10.76;66.11;97144.94;4198432;28;5718;-66
2023/01/13 06:45:21;;;;;;;;;;;;;;;10.77;66.08;97136.00;4187131;28;5788;-65
2023/01/13 06:47:24;;;;;;;;;;;;;;;10.79;66.13;97163.06;4202597;28;5684;-65
2023/01/13 06:49:27;;;;;;;;;;;;;;;10.78;66.26;97164.06;4202378;28;5696;-66
2023/01/13 06:51:29;;;;;;;;;;;;;;;10.78;66.13;97159.59;4202693;28;5933;-66
2023/01/13 06:53:32;;;;;;;;;;;;;;;10.76;66.10;97166.09;4202488;28;5689;-66
2023/01/13 06:55:35;;;;;;;;;;;;;;;10.73;66.10;97169.06;4202676;28;5813;-66
2023/01/13 06:57:48;;;;;;;;;;;;;;;10.71;65.91;97163.16;4201988;28;6816;-66
2023/01/13 06:59:50;;;;;;;;;;;;;;;10.68;66.15;97167.00;4199745;28;5690;-66
2023/01/13 07:01:54;;;;;;;;;;;;;;;10.66;66.00;97174.31;4200621;28;5681;-67
2023/01/13 07:03:58;;;;;;;;;;;;;;;10.66;66.21;97173.47;4200594;28;5688;-67
2023/01/13 07:06:01;;;;;;;;;;;;;;;10.67;66.07;97175.94;4199490;28;5106;-67
2023/01/13 07:08:04;;;;;;;;;;;;;;;10.67;65.94;97180.41;4201530;28;5685;-67
2023/01/13 07:10:10;;;;;;;;;;;;;;;10.68;66.17;97192.63;4202231;28;6390;-67
2023/01/13 07:12:12;;;;;;;;;;;;;;;10.69;65.93;97196.91;4201090;28;5819;-67
2023/01/13 07:16:35;;;;;;;;;;;;;;;10.67;66.39;97196.28;4187361;28;5734;-67
2023/01/13 07:18:39;;;;;;;;;;;;;;;10.68;66.01;97211.13;4201631;28;5790;-67
2023/01/13 07:20:42;;;;;;;;;;;;;;;10.72;65.86;97205.28;4200769;28;5780;-67
2023/01/13 07:22:45;;;;;;;;;;;;;;;10.68;66.17;97213.78;4202276;28;5725;-67
2023/01/13 07:24:47;;;;;;;;;;;;;;;10.66;66.22;97211.31;4201704;28;5696;-67
2023/01/13 07:26:51;;;;;;;;;;;;;;;10.69;66.17;97215.41;4201349;28;5140;-67
2023/01/13 07:28:53;;;;;;;;;;;;;;;10.69;65.94;97223.34;4201436;28;7753;-67
2023/01/13 07:30:57;;;;;;;;;;;;;;;10.70;66.27;97217.06;4201833;28;5106;-67
2023/01/13 07:33:00;;;;;;;;;;;;;;;10.73;66.09;97211.38;4201716;28;5863;-66
2023/01/13 07:35:05;;;;;;;;;;;;;;;10.73;66.38;97221.97;4201435;28;5775;-67
2023/01/13 07:37:07;;;;;;;;;;;;;;;10.74;65.90;97208.56;4201838;28;5681;-66
2023/01/13 07:39:10;;;;;;;;;;;;;;;10.76;66.04;97216.34;4202132;28;5757;-67
2023/01/13 07:43:35;;;;;;;;;;;;;;;10.75;66.22;97217.31;4201292;28;5799;-67
2023/01/13 07:45:38;;;;;;;;;;;;;;;10.77;66.30;97224.06;4201455;28;5681;-67
2023/01/13 07:47:41;;;;;;;;;;;;;;;10.79;65.95;97231.81;4200974;28;5673;-67
2023/01/13 07:49:44;;;;;;;;;;;;;;;10.77;65.83;97221.44;4201498;28;5920;-67
2023/01/13 07:51:48;;;;;;;;;;;;;;;10.77;66.01;97223.25;4201371;28;5783;-67
2023/01/13 07:53:50;;;;;;;;;;;;;;;10.79;65.76;97229.19;4201191;28;5748;-67
2023/01/13 07:55:56;;;;;;;;;;;;;;;10.79;66.06;97242.41;4203008;28;5825;-68
2023/01/13 07:57:59;;;;;;;;;;;;;;;10.82;66.05;97236.75;4200878;28;5735;-67
2023/01/13 08:00:02;;;;;;;;;;;;;;;10.81;66.11;97240.38;4201086;28;5977;-67
2023/01/13 08:02:05;;;;;;;;;;;;;;;10.79;66.03;97245.03;4201345;28;5692;-68
2023/01/13 08:04:08;;;;;;;;;;;;;;;10.79;66.07;97234.47;4201405;28;5704;-67
2023/01/13 08:06:12;;;;;;;;;;;;;;;10.77;65.97;97234.66;4200666;28;5689;-67
2023/01/13 08:08:17;;;;;;;;;;;;;;;10.76;66.24;97229.56;4200905;28;5685;-67
2023/01/13 08:10:19;;;;;;;;;;;;;;;10.77;66.26;97233.84;4201092;28;5667;-67
2023/01/13 08:14:54;;;;;;;;;;;;;;;10.81;65.68;97248.31;4201045;28;5678;-67
2023/01/13 08:16:57;;;;;;;;;;;;;;;10.81;65.82;97248.31;4200830;28;5697;-67
2023/01/13 08:19:00;;;;;;;;;;;;;;;10.84;65.80;97249.78;4200851;28;6498;-67
2023/01/13 08:21:07;;;;;;;;;;;;;;;10.84;65.82;97245.31;4201063;28;5677;-67
2023/01/13 08:23:10;;;;;;;;;;;;;;;10.82;65.55;97242.03;4201152;28;5681;-67
2023/01/13 08:25:15;;;;;;;;;;;;;;;10.84;66.10;97242.66;4192947;28;5075;-67
2023/01/13 08:27:19;;;;;;;;;;;;;;;10.87;66.04;97244.09;4200401;28;5689;-67
2023/01/13 08:29:21;;;;;;;;;;;;;;;10.87;66.00;97231.69;4203032;28;5716;-68
2023/01/13 08:31:24;;;;;;;;;;;;;;;10.87;65.75;97230.88;4200547;28;5839;-67
2023/01/13 08:33:27;;;;;;;;;;;;;;;10.89;65.88;97248.25;4200625;28;5117;-68
2023/01/13 08:35:30;;;;;;;;;;;;;;;10.88;66.17;97246.59;4200551;28;5977;-66
2023/01/13 08:37:33;;;;;;;;;;;;;;;10.87;66.14;97249.41;4200394;28;5802;-67
2023/01/13 08:39:36;;;;;;;;;;;;;;;10.90;65.60;97265.75;4200571;28;5705;-68
2023/01/13 08:41:55;;;;;;;;;;;;;;;10.92;65.89;97261.09;4200710;28;5693;-67
2023/01/13 08:43:58;;;;;;;;;;;;;;;10.95;65.97;97262.53;4200368;28;5825;-67
2023/01/13 08:46:03;;;;;;;;;;;;;;;10.96;65.85;97267.63;4200683;28;5780;-66
2023/01/13 08:48:08;;;;;;;;;;;;;;;10.98;65.96;97275.38;4200267;28;5702;-68
2023/01/13 08:50:12;;;;;;;;;;;;;;;11.00;65.67;97276.06;4200301;28;5820;-66
2023/01/13 08:52:15;;;;;;;;;;;;;;;11.00;65.51;97286.63;4200601;28;5689;-67
2023/01/13 08:54:18;;;;;;;;;;;;;;;10.95;65.93;97278.41;4195474;28;5813;-67
2023/01/13 08:56:21;;;;;;;;;;;;;;;10.94;65.57;97288.16;4197152;28;6424;-66
2023/01/13 08:58:25;;;;;;;;;;;;;;;10.94;66.06;97297.94;4199704;28;5713;-67
2023/01/13 09:00:28;;;;;;;;;;;;;;;10.91;66.11;97301.78;4199998;28;5798;-68
2023/01/13 09:02:31;;;;;;;;;;;;;;;10.94;66.04;97313.81;4199367;28;5685;-70
2023/01/13 09:04:34;;;;;;;;;;;;;;;10.95;66.00;97303.03;4199457;28;6371;-68
2023/01/13 09:06:37;;;;;;;;;;;;;;;10.98;65.71;97312.44;4199527;28;5803;-67
2023/01/13 09:08:39;;;;;;;;;;;;;;;11.00;65.68;97305.16;4198875;28;5677;-66
2023/01/13 09:10:44;;;;;;;;;;;;;;;11.02;66.08;97309.25;4196257;28;5896;-66
2023/01/13 09:15:10;;;;;;;;;;;;;;;11.07;65.67;97319.28;4200354;28;5677;-67
2023/01/13 09:17:13;;;;;;;;;;;;;;;11.05;65.79;97324.75;4200471;28;5688;-68
2023/01/13 09:19:16;;;;;;;;;;;;;;;10.97;65.56;97318.72;4199066;28;5784;-64
2023/01/13 09:21:19;;;;;;;;;;;;;;;11.01;65.95;97328.78;4201292;28;5867;-66
2023/01/13 09:23:22;;;;;;;;;;;;;;;11.06;65.66;97320.28;4200385;28;5697;-66
2023/01/13 09:25:25;;;;;;;;;;;;;;;11.08;65.66;97327.03;4200354;28;5720;-66
2023/01/13 09:27:28;;;;;;;;;;;;;;;11.12;65.84;97319.56;4200021;28;5823;-67
2023/01/13 09:29:31;;;;;;;;;;;;;;;11.17;65.85;97325.09;4200082;28;6383;-67
2023/01/13 09:31:35;;;;;;;;;;;;;;;11.17;65.79;97325.09;4199252;28;5694;-67
2023/01/13 09:35:59;;;;;;;;;;;;;;;11.20;65.52;97303.56;4200337;28;5726;-67
2023/01/13 09:38:02;;;;;;;;;;;;;;;11.26;65.57;97302.03;4202127;28;5706;-67
2023/01/13 09:40:09;;;;;;;;;;;;;;;11.31;65.41;97320.78;4200327;28;5697;-67
2023/01/13 09:44:45;;;;;;;;;;;;;;;11.37;65.50;97317.44;4203374;28;5696;-67
2023/01/13 09:46:53;;;;;;;;;;;;;;;11.39;65.18;97328.66;4203192;28;5701;-67
2023/01/13 09:48:57;;;;;;;;;;;;;;;11.35;65.53;97319.44;4203287;28;5677;-67
2023/01/13 09:51:05;;;;;;;;;;;;;;;11.34;65.64;97326.56;4201783;28;5775;-66
2023/01/13 09:53:15;;;;;;;;;;;;;;;11.35;65.35;97337.97;4187830;28;5821;-67
2023/01/13 09:55:23;;;;;;;;;;;;;;;11.34;65.27;97331.84;4195300;28;5713;-66
2023/01/13 09:57:28;;;;;;;;;;;;;;;11.30;65.66;97333.22;4201858;28;6525;-68
2023/01/13 09:59:35;;;;;;;;;;;;;;;11.30;65.64;97329.75;4193598;28;5697;-67
2023/01/13 10:01:46;;;;;;;;;;;;;;;11.29;65.79;97318.34;4203258;28;5693;-67
2023/01/13 10:03:50;;;;;;;;;;;;;;;11.36;65.41;97310.50;4201998;28;5859;-67
2023/01/13 10:05:58;;;;;;;;;;;;;;;11.37;65.69;97317.44;4203137;28;7161;-67
2023/01/13 10:08:06;;;;;;;;;;;;;;;11.41;65.59;97313.38;4201550;28;6014;-66
2023/01/13 10:10:17;;;;;;;;;;;;;;;11.45;65.38;97317.34;4203101;28;5079;-66
2023/01/13 10:14:51;;;;;;;;;;;;;;;11.49;65.45;97323.06;4203050;28;5681;-67
2023/01/13 10:17:10;;;;;;;;;;;;;;;11.50;65.53;97314.94;4203514;28;5795;-66
2023/01/13 10:19:21;;;;;;;;;;;;;;;11.52;65.30;97323.50;4199783;28;6619;-67
2023/01/13 10:21:43;;;;;;;;;;;;;;;11.51;65.38;97311.28;4203051;28;5764;-67
2023/01/13 10:23:56;;;;;;;;;;;;;;;11.50;65.46;97322.06;4202753;28;5678;-66
2023/01/13 10:26:10;;;;;;;;;;;;;;;11.50;65.65;97316.75;4201232;28;5885;-67
2023/01/13 10:28:17;;;;;;;;;;;;;;;11.50;65.58;97304.34;4202352;28;6594;-66
2023/01/13 10:30:30;;;;;;;;;;;;;;;11.56;65.42;97303.59;4202004;28;6443;-66
2023/01/13 10:32:34;;;;;;;;;;;;;;;11.63;65.42;97298.38;4202067;28;5110;-67
2023/01/13 10:34:48;;;;;;;;;;;;;;;11.65;65.27;97313.06;4201428;28;5677;-67
2023/01/13 10:37:00;;;;;;;;;;;;;;;11.66;65.29;97311.22;4202844;28;5704;-67
2023/01/13 10:39:09;;;;;;;;;;;;;;;11.65;65.32;97302.47;4202804;28;5689;-67
2023/01/13 10:41:19;;;;;;;;;;;;;;;11.67;65.45;97294.34;4199946;28;6578;-67
2023/01/13 10:43:23;;;;;;;;;;;;;;;11.68;65.49;97303.94;4187512;28;5721;-67
2023/01/13 10:45:28;;;;;;;;;;;;;;;11.66;65.60;97304.13;4202006;28;5799;-67
2023/01/13 10:47:33;;;;;;;;;;;;;;;11.63;65.66;97303.66;4202430;28;5723;-67
2023/01/13 10:49:38;;;;;;;;;;;;;;;11.60;65.34;97307.50;4185411;28;6386;-67
2023/01/13 10:51:44;;;;;;;;;;;;;;;11.65;65.37;97301.66;4198463;28;5841;-67
2023/01/13 10:53:52;;;;;;;;;;;;;;;11.71;65.44;97297.44;4202411;28;5733;-67
2023/01/13 10:56:00;;;;;;;;;;;;;;;11.73;65.15;97282.19;4201723;28;5705;-67
2023/01/13 10:58:12;;;;;;;;;;;;;;;11.74;65.51;97278.50;4202214;28;5705;-66
2023/01/13 11:00:27;;;;;;;;;;;;;;;11.76;65.03;97276.50;4194737;28;5800;-67
2023/01/13 11:02:31;;;;;;;;;;;;;;;11.75;65.03;97269.56;4196972;28;5829;-67
2023/01/13 11:04:36;;;;;;;;;;;;;;;11.77;65.39;97270.19;4188503;28;6346;-67
2023/01/13 11:06:46;;;;;;;;;;;;;;;11.74;65.43;97262.63;4201306;28;5689;-67
2023/01/13 11:08:54;;;;;;;;;;;;;;;11.71;65.36;97274.41;4202425;28;6505;-67
2023/01/13 11:10:59;;;;;;;;;;;;;;;11.69;65.38;97270.34;4201161;28;5755;-71
2023/01/13 11:13:07;;;;;;;;;;;;;;;11.65;65.33;97270.69;4201955;28;5710;-66
2023/01/13 11:15:17;;;;;;;;;;;;;;;11.63;65.05;97278.00;4196163;28;5709;-69
2023/01/13 11:17:31;;;;;;;;;;;;;;;11.67;65.45;97270.53;4198544;28;5729;-66
2023/01/13 11:19:35;;;;;;;;;;;;;;;11.70;65.19;97266.66;4202104;28;5674;-67
2023/01/13 11:21:48;;;;;;;;;;;;;;;11.72;65.22;97268.13;4202427;28;5725;-66
2023/01/13 11:24:03;;;;;;;;;;;;;;;11.73;65.34;97274.22;4202055;28;5692;-67
2023/01/13 11:26:13;;;;;;;;;;;;;;;11.74;65.33;97278.50;4201051;28;5677;-67
2023/01/13 11:28:27;;;;;;;;;;;;;;;11.72;65.34;97268.13;4199149;28;5704;-67
2023/01/13 11:30:38;;;;;;;;;;;;;;;11.69;65.47;97271.16;4201724;28;5831;-67
2023/01/13 11:32:52;;;;;;;;;;;;;;;11.66;65.17;97267.06;4201484;28;5690;-67
2023/01/13 11:35:00;;;;;;;;;;;;;;;11.72;65.12;97256.69;4201275;28;6382;-67
2023/01/13 11:37:10;;;;;;;;;;;;;;;11.73;65.33;97261.81;4201972;28;5716;-67
2023/01/13 11:39:22;;;;;;;;;;;;;;;11.73;65.05;97255.69;4201644;28;5768;-67
2023/01/13 11:41:42;;;;;;;;;;;;;;;11.77;65.07;97262.25;4201667;28;5760;-67
2023/01/13 11:43:51;;;;;;;;;;;;;;;11.79;65.09;97274.34;4200916;28;5705;-67
2023/01/13 11:45:57;;;;;;;;;;;;;;;11.78;65.31;97263.88;4200965;28;5760;-67
2023/01/13 11:48:02;;;;;;;;;;;;;;;11.80;65.27;97280.47;4200801;28;5843;-66
2023/01/13 11:50:16;;;;;;;;;;;;;;;11.79;65.33;97274.34;4201091;28;5684;-67
2023/01/13 11:52:24;;;;;;;;;;;;;;;11.78;65.00;97269.16;4201286;28;5767;-67
2023/01/13 11:54:47;;;;;;;;;;;;;;;11.78;65.25;97270.03;4201580;28;5700;-67
2023/01/13 11:57:24;;;;;;;;;;;;;;;11.80;65.44;97264.56;4200779;28;5680;-67
2023/01/13 11:59:55;;;;;;;;;;;;;;;11.87;65.05;97268.06;4189372;28;5067;-67
2023/01/13 12:02:19;;;;;;;;;;;;;;;11.96;65.11;97266.94;4201034;28;8448;-67
2023/01/13 12:04:28;;;;;;;;;;;;;;;11.99;65.18;97269.22;4186213;28;5826;-67
2023/01/13 12:06:34;;;;;;;;;;;;;;;12.00;65.24;97281.44;4200368;28;5901;-65
2023/01/13 12:08:54;;;;;;;;;;;;;;;11.99;65.18;97282.44;4201019;28;5712;-66
2023/01/13 12:11:10;;;;;;;;;;;;;;;11.97;65.13;97292.44;4197457;28;6969;-66
2023/01/13 12:13:25;;;;;;;;;;;;;;;12.00;64.92;97286.75;4201029;28;5806;-66
2023/01/13 12:15:48;;;;;;;;;;;;;;;12.00;64.99;97284.09;4200937;28;5792;-66
2023/01/13 12:18:06;;;;;;;;;;;;;;;12.01;65.18;97284.94;4201064;28;5689;-67
2023/01/13 12:20:20;;;;;;;;;;;;;;;11.96;65.17;97274.91;4201240;28;5784;-67
2023/01/13 12:22:26;;;;;;;;;;;;;;;11.95;64.94;97278.56;4201352;28;5677;-66
2023/01/13 12:24:34;;;;;;;;;;;;;;;11.93;65.28;97288.53;4199710;28;5692;-67
2023/01/13 12:26:43;;;;;;;;;;;;;;;11.95;64.95;97286.50;4198932;28;5693;-66
2023/01/13 12:28:51;;;;;;;;;;;;;;;11.96;64.87;97285.50;4199130;28;5696;-67
2023/01/13 12:30:59;;;;;;;;;;;;;;;11.99;65.20;97285.09;4200331;28;5820;-67
2023/01/13 12:33:16;;;;;;;;;;;;;;;12.00;65.13;97280.63;4200669;28;5725;-66
2023/01/13 12:35:36;;;;;;;;;;;;;;;12.00;65.20;97286.75;4193788;28;5696;-67
2023/01/13 12:37:47;;;;;;;;;;;;;;;12.03;65.03;97282.91;4200951;28;5693;-67
2023/01/13 12:40:01;;;;;;;;;;;;;;;11.99;64.95;97293.06;4200561;28;5701;-67
2023/01/13 12:44:35;;;;;;;;;;;;;;;12.05;64.99;97297.59;4195548;28;5680;-66
2023/01/13 12:46:54;;;;;;;;;;;;;;;12.08;65.16;97297.22;4193900;28;5689;-66
2023/01/13 12:49:08;;;;;;;;;;;;;;;12.13;65.11;97294.84;4200480;28;5713;-66
2023/01/13 12:51:22;;;;;;;;;;;;;;;12.18;64.88;97291.59;4192050;28;5830;-66
2023/01/13 12:53:30;;;;;;;;;;;;;;;12.23;64.90;97292.69;4200503;28;5689;-66
2023/01/13 12:55:35;;;;;;;;;;;;;;;12.27;65.21;97273.75;4200530;28;5697;-66
2023/01/13 12:57:39;;;;;;;;;;;;;;;12.33;64.75;97278.25;4199332;28;5697;-66
2023/01/13 12:59:48;;;;;;;;;;;;;;;12.39;65.14;97278.31;4199325;28;5704;-66
2023/01/13 13:02:14;;;;;;;;;;;;;;;12.45;64.97;97282.84;4200845;28;5685;-66
2023/01/13 13:04:20;;;;;;;;;;;;;;;12.44;64.89;97286.50;4192909;28;5709;-66
2023/01/13 13:06:29;;;;;;;;;;;;;;;12.42;64.54;97269.97;4200361;28;5779;-66
2023/01/13 13:08:53;;;;;;;;;;;;;;;12.44;64.46;97269.78;4200139;28;5697;-66
2023/01/13 13:11:01;;;;;;;;;;;;;;;12.46;64.34;97273.91;4200137;28;5830;-65
2023/01/13 13:13:18;;;;;;;;;;;;;;;12.46;64.54;97273.06;4200220;28;5697;-66
2023/01/13 13:15:23;;;;;;;;;;;;;;;12.44;64.58;97273.25;4200323;28;5697;-65
2023/01/13 13:17:45;;;;;;;;;;;;;;;12.45;64.36;97282.03;4199896;28;6495;-66
2023/01/13 13:19:49;;;;;;;;;;;;;;;12.45;64.62;97279.38;4204398;28;5677;-66
2023/01/13 13:22:18;;;;;;;;;;;;;;;12.44;64.19;97291.00;4203709;28;5684;-66
2023/01/13 13:24:21;;;;;;;;;;;;;;;12.44;64.19;97288.34;4197218;28;5702;-66
2023/01/13 13:26:39;;;;;;;;;;;;;;;12.46;64.22;97289.00;4203413;28;5685;-65
2023/01/13 13:28:48;;;;;;;;;;;;;;;12.47;64.16;97293.28;4203505;28;5676;-65
2023/01/13 13:31:21;;;;;;;;;;;;;;;12.48;64.23;97287.78;4203425;28;5706;-65
2023/01/13 13:33:44;;;;;;;;;;;;;;;12.50;64.03;97285.75;4203502;28;5713;-66
2023/01/13 13:36:01;;;;;;;;;;;;;;;12.48;64.05;97281.66;4203980;28;5102;-66
2023/01/13 13:47:51;;;;;;;;;;;;;;;12.52;63.66;97293.50;4203371;28;5692;-65
2023/01/13 13:49:55;;;;;;;;;;;;;;;12.55;63.40;97303.72;4203341;28;5693;-67
2023/01/13 13:52:04;;;;;;;;;;;;;;;12.57;63.16;97307.03;4203014;28;5947;-67
2023/01/13 13:54:10;;;;;;;;;;;;;;;12.55;63.08;97303.72;4201350;28;5772;-66
2023/01/13 13:56:19;;;;;;;;;;;;;;;12.52;63.02;97304.94;4194821;28;5832;-67
2023/01/13 13:58:22;;;;;;;;;;;;;;;12.51;63.07;97305.13;4202691;28;5668;-66
2023/01/13 14:00:28;;;;;;;;;;;;;;;12.45;62.76;97308.53;4203138;28;5688;-67
2023/01/13 14:02:36;;;;;;;;;;;;;;;12.43;63.24;97308.72;4202444;28;5693;-67
2023/01/13 14:04:40;;;;;;;;;;;;;;;12.42;62.54;97299.13;4203062;28;5677;-67
2023/01/13 14:06:50;;;;;;;;;;;;;;;12.44;62.75;97323.63;4202537;28;5772;-67
2023/01/13 14:08:54;;;;;;;;;;;;;;;12.42;62.78;97322.19;4202870;28;5709;-66
2023/01/13 14:10:57;;;;;;;;;;;;;;;12.41;62.84;97317.91;4204503;28;5704;-67
2023/01/13 14:13:02;;;;;;;;;;;;;;;12.42;62.69;97322.19;4202505;28;5876;-67
2023/01/13 14:15:06;;;;;;;;;;;;;;;12.44;62.26;97328.94;4203007;28;5688;-67
2023/01/13 14:17:19;;;;;;;;;;;;;;;12.44;62.36;97325.47;4202449;28;5787;-66
2023/01/13 14:19:29;;;;;;;;;;;;;;;12.44;62.20;97328.09;4202756;28;5696;-66
2023/01/13 14:21:31;;;;;;;;;;;;;;;12.36;62.19;97312.34;4202759;28;5779;-67
2023/01/13 14:23:34;;;;;;;;;;;;;;;12.32;62.13;97309.25;4202109;28;5713;-66
2023/01/13 14:25:46;;;;;;;;;;;;;;;12.31;62.18;97301.50;4202588;28;5696;-66
2023/01/13 14:27:49;;;;;;;;;;;;;;;12.24;62.20;97306.75;4203213;28;5733;-66
2023/01/13 14:29:53;;;;;;;;;;;;;;;12.20;62.39;97303.66;4202132;28;5701;-66
2023/01/13 14:31:57;;;;;;;;;;;;;;;12.19;62.58;97302.00;4202135;28;5681;-66
2023/01/13 14:34:03;;;;;;;;;;;;;;;12.18;62.24;97300.38;4202033;28;5804;-66
2023/01/13 14:36:36;;;;;;;;;;;;;;;12.18;62.25;97303.03;4196439;28;5763;-66
2023/01/13 14:38:39;;;;;;;;;;;;;;;12.16;62.52;97301.56;4202771;28;5748;-67
2023/01/13 14:40:45;;;;;;;;;;;;;;;12.14;62.34;97307.06;4201205;28;5681;-66
2023/01/13 14:42:57;;;;;;;;;;;;;;;12.13;62.30;97325.81;4199103;28;5688;-67
2023/01/13 14:45:02;;;;;;;;;;;;;;;12.13;62.31;97331.94;4202310;28;5830;-65
2023/01/13 14:47:19;;;;;;;;;;;;;;;12.12;62.50;97327.66;4201840;28;5690;-65
2023/01/13 14:49:27;;;;;;;;;;;;;;;12.15;62.63;97335.22;4195818;28;5693;-65
2023/01/13 14:51:30;;;;;;;;;;;;;;;12.20;62.42;97338.09;4200721;28;6213;-65
2023/01/13 14:53:39;;;;;;;;;;;;;;;12.25;62.53;97332.25;4194209;28;5678;-64
2023/01/13 14:55:41;;;;;;;;;;;;;;;12.28;62.81;97336.34;4199728;28;5827;-65
2023/01/13 14:57:45;;;;;;;;;;;;;;;12.31;62.36;97341.25;4198956;28;5693;-66
2023/01/13 14:59:56;;;;;;;;;;;;;;;12.31;62.52;97343.91;4199703;28;5685;-66
2023/01/13 15:01:59;;;;;;;;;;;;;;;12.32;62.37;97350.84;4198582;28;5780;-66
2023/01/13 15:04:24;;;;;;;;;;;;;;;12.33;62.68;97352.50;4199605;28;5648;-66
2023/01/13 15:06:27;;;;;;;;;;;;;;;12.33;62.70;97357.78;4200597;28;5824;-65
2023/01/13 15:08:35;;;;;;;;;;;;;;;12.34;62.32;97359.44;4200742;28;5903;-65
2023/01/13 15:10:47;;;;;;;;;;;;;;;12.34;62.77;97359.44;4200848;28;6377;-66
2023/01/13 15:12:52;;;;;;;;;;;;;;;12.34;62.48;97370.03;4200509;28;5673;-65
2023/01/13 15:14:56;;;;;;;;;;;;;;;12.35;62.50;97371.69;4200076;28;5812;-66
2023/01/13 15:16:59;;;;;;;;;;;;;;;12.35;62.40;97361.91;4200880;28;5689;-66
2023/01/13 15:19:02;;;;;;;;;;;;;;;12.36;62.61;97366.22;4201275;28;5693;-66
2023/01/13 15:21:05;;;;;;;;;;;;;;;12.36;62.74;97371.50;4200564;28;5884;-66
2023/01/13 15:23:08;;;;;;;;;;;;;;;12.36;62.71;97371.50;4200208;28;5939;-66
2023/01/13 15:25:11;;;;;;;;;;;;;;;12.37;62.63;97380.28;4200267;28;8297;-66
2023/01/13 15:27:20;;;;;;;;;;;;;;;12.37;62.35;97377.63;4199891;28;5808;-66
2023/01/13 15:29:24;;;;;;;;;;;;;;;12.34;62.53;97385.94;4195238;28;5801;-66
2023/01/13 15:31:28;;;;;;;;;;;;;;;12.31;62.55;97386.31;4203746;28;5913;-66
2023/01/13 15:33:31;;;;;;;;;;;;;;;12.26;62.62;97405.47;4195835;28;5696;-66
2023/01/13 15:35:34;;;;;;;;;;;;;;;12.21;62.99;97397.25;4196743;28;5784;-67
2023/01/13 15:37:37;;;;;;;;;;;;;;;12.19;62.47;97405.38;4200201;28;5702;-66
2023/01/13 15:39:39;;;;;;;;;;;;;;;12.17;62.87;97407.41;4199968;28;5780;-66
2023/01/13 15:46:40;;;;;;;;;;;;;;;12.24;62.53;97418.91;4193194;28;5688;-67
2023/01/13 15:48:42;;;;;;;;;;;;;;;12.22;62.54;97433.34;4199808;28;5692;-66
2023/01/13 15:50:46;;;;;;;;;;;;;;;12.20;62.74;97432.72;4199458;28;5686;-66
2023/01/13 15:52:50;;;;;;;;;;;;;;;12.23;62.63;97417.28;4200817;28;5693;-65
2023/01/13 15:54:53;;;;;;;;;;;;;;;12.24;62.81;97423.41;4199409;28;5763;-65
2023/01/13 15:56:56;;;;;;;;;;;;;;;12.24;62.92;97426.88;4197987;28;5805;-66
2023/01/13 15:58:59;;;;;;;;;;;;;;;12.26;62.79;97431.16;4200998;28;6696;-65
2023/01/13 16:01:02;;;;;;;;;;;;;;;12.25;62.37;97435.63;4193326;28;5670;-66
2023/01/13 16:03:06;;;;;;;;;;;;;;;12.22;62.29;97431.50;4188804;28;5725;-65
2023/01/13 16:05:09;;;;;;;;;;;;;;;12.22;62.41;97436.00;4202785;28;5730;-66
2023/01/13 16:07:16;;;;;;;;;;;;;;;12.20;62.20;97433.53;4196148;28;5677;-66
2023/01/13 16:09:18;;;;;;;;;;;;;;;12.21;62.14;97435.16;4199863;28;5788;-65
2023/01/13 16:11:21;;;;;;;;;;;;;;;12.19;62.41;97431.88;4199703;28;5669;-67
2023/01/13 16:13:24;;;;;;;;;;;;;;;12.22;62.21;97433.34;4199541;28;5772;-65
2023/01/13 16:15:26;;;;;;;;;;;;;;;12.24;62.34;97442.78;4199377;28;5792;-66
2023/01/13 16:17:33;;;;;;;;;;;;;;;12.24;62.12;97440.13;4199141;28;5753;-66
2023/01/13 16:19:37;;;;;;;;;;;;;;;12.26;61.99;97441.75;4199843;28;5685;-65
2023/01/13 16:21:40;;;;;;;;;;;;;;;12.26;62.04;97441.75;4199635;28;5689;-65
2023/01/13 16:23:42;;;;;;;;;;;;;;;12.24;61.75;97445.41;4199391;28;5692;-66
2023/01/13 16:25:46;;;;;;;;;;;;;;;12.26;61.93;97447.88;4199236;28;5677;-65
2023/01/13 16:27:49;;;;;;;;;;;;;;;12.27;61.88;97451.34;4199373;28;5783;-65
2023/01/13 16:29:53;;;;;;;;;;;;;;;12.28;61.84;97447.69;4199083;28;5785;-66
2023/01/13 16:31:55;;;;;;;;;;;;;;;12.28;61.66;97451.16;4199403;28;5783;-66
2023/01/13 16:33:59;;;;;;;;;;;;;;;12.29;61.76;97454.63;4199330;28;5775;-66
2023/01/13 16:36:08;;;;;;;;;;;;;;;12.29;61.66;97458.09;4199691;28;5764;-67
2023/01/13 16:38:15;;;;;;;;;;;;;;;12.29;61.33;97467.88;4192513;28;5760;-67
2023/01/13 16:40:22;;;;;;;;;;;;;;;12.29;61.28;97470.53;4199379;28;5839;-67
2023/01/13 16:42:25;;;;;;;;;;;;;;;12.29;61.68;97467.88;4199427;28;5680;-67
2023/01/13 16:44:28;;;;;;;;;;;;;;;12.28;61.38;97474.19;4199020;28;5783;-65
2023/01/13 16:46:32;;;;;;;;;;;;;;;12.28;61.15;97474.19;4199408;28;5843;-66
2023/01/13 16:48:34;;;;;;;;;;;;;;;12.27;61.39;97480.50;4199244;28;5792;-66
2023/01/13 16:50:39;;;;;;;;;;;;;;;12.25;61.15;97483.34;4199297;28;5680;-66
2023/01/13 16:52:43;;;;;;;;;;;;;;;12.26;61.19;97492.94;4198928;28;6379;-66
2023/01/13 16:54:46;;;;;;;;;;;;;;;12.27;61.27;97496.41;4198980;28;5653;-65
2023/01/13 16:56:49;;;;;;;;;;;;;;;12.23;61.54;97502.09;4198464;28;5808;-65
2023/01/13 16:58:53;;;;;;;;;;;;;;;12.24;60.98;97517.00;4198418;28;5689;-65
2023/01/13 17:00:56;;;;;;;;;;;;;;;12.26;61.33;97527.41;4199036;28;5720;-65
2023/01/13 17:03:00;;;;;;;;;;;;;;;12.30;61.24;97530.50;4199168;28;5923;-65